Time;durP1;ratioP1;P1;durP2;ratioP2;P2;SDS_P1;SDS_P2;PMS_P1;PMS_P2;Temp;Humidity;BMP_temperature;BMP_pressure;BME280_temperature;BME280_humidity;BME280_pressure;Samples;Min_cycle;Max_cycle;Signal;HPM_P1;HPM_P2
2022/05/15 00:01:53;;;;;;;22.40;5.90;;;12.90;99.90;;;;;;5132572;27;20395;-78
2022/05/15 00:04:19;;;;;;;19.20;5.65;;;12.90;99.90;;;;;;5131221;27;20480;-78
2022/05/15 00:06:45;;;;;;;24.05;6.63;;;12.90;99.90;;;;;;5131056;27;20471;-78
2022/05/15 00:09:10;;;;;;;24.17;7.00;;;12.80;99.90;;;;;;5131605;27;20422;-78
2022/05/15 00:11:36;;;;;;;26.63;7.72;;;12.80;99.90;;;;;;5131635;27;20399;-78
2022/05/15 00:14:02;;;;;;;22.42;7.30;;;12.70;99.90;;;;;;5113616;27;20394;-78
2022/05/15 00:16:31;;;;;;;23.15;7.13;;;12.70;99.90;;;;;;5132005;27;20391;-78
2022/05/15 00:18:57;;;;;;;23.92;7.55;;;12.60;99.90;;;;;;5130902;27;20424;-78
2022/05/15 00:21:24;;;;;;;23.03;7.57;;;12.60;99.90;;;;;;5147790;27;20436;-78
2022/05/15 00:23:49;;;;;;;25.47;7.43;;;12.60;99.90;;;;;;5152712;27;20382;-77
2022/05/15 00:26:15;;;;;;;24.20;7.28;;;12.50;99.90;;;;;;5133590;27;20460;-78
2022/05/15 00:28:41;;;;;;;21.70;6.72;;;12.50;99.90;;;;;;5152525;27;20484;-78
2022/05/15 00:31:07;;;;;;;25.00;6.68;;;12.50;99.90;;;;;;5134509;27;20412;-78
2022/05/15 00:33:32;;;;;;;22.60;6.40;;;12.40;99.90;;;;;;5133931;27;20453;-77
2022/05/15 00:35:58;;;;;;;21.30;6.67;;;12.40;99.90;;;;;;5152819;27;20400;-78
2022/05/15 00:38:24;;;;;;;25.07;7.57;;;12.40;99.90;;;;;;5134311;27;20409;-78
2022/05/15 00:40:50;;;;;;;21.63;6.93;;;12.30;99.90;;;;;;5134058;27;20467;-78
2022/05/15 00:43:34;;;;;;;24.48;7.50;;;12.20;99.90;;;;;;5152401;27;20437;-78
2022/05/15 00:46:01;;;;;;;24.70;7.05;;;12.10;99.90;;;;;;5152716;27;20405;-78
2022/05/15 00:48:26;;;;;;;25.27;7.20;;;12.10;99.90;;;;;;5152246;27;20922;-78
2022/05/15 00:50:53;;;;;;;20.73;6.25;;;12.10;99.90;;;;;;5152510;27;20397;-78
2022/05/15 00:53:19;;;;;;;26.73;8.07;;;12.00;99.90;;;;;;5133561;27;20416;-78
2022/05/15 00:55:49;;;;;;;20.77;7.88;;;12.00;99.90;;;;;;5133582;27;20401;-78
2022/05/15 00:58:21;;;;;;;22.42;8.00;;;11.90;99.90;;;;;;5152148;27;20429;-78
2022/05/15 01:00:47;;;;;;;26.38;7.57;;;11.90;99.90;;;;;;5132495;27;20811;-78
2022/05/15 01:03:15;;;;;;;21.35;6.68;;;11.90;99.90;;;;;;5151266;27;20439;-78
2022/05/15 01:05:54;;;;;;;22.75;7.28;;;11.80;99.90;;;;;;5152215;27;20400;-78
2022/05/15 01:08:21;;;;;;;24.63;8.05;;;11.70;99.90;;;;;;5151935;27;20868;-78
2022/05/15 01:10:51;;;;;;;22.17;6.80;;;11.80;99.90;;;;;;5137941;27;20398;-78
2022/05/15 01:13:17;;;;;;;25.77;7.17;;;11.70;99.90;;;;;;5112616;27;20399;-78
2022/05/15 01:15:45;;;;;;;20.55;7.15;;;11.70;99.90;;;;;;5131189;27;20390;-78
2022/05/15 01:18:11;;;;;;;22.93;6.63;;;11.70;99.90;;;;;;5135241;27;20393;-78
2022/05/15 01:20:40;;;;;;;20.55;6.32;;;11.70;99.90;;;;;;5133508;27;20397;-78
2022/05/15 01:23:06;;;;;;;24.58;7.53;;;11.70;99.90;;;;;;5133103;27;20472;-78
2022/05/15 01:25:35;;;;;;;25.02;6.57;;;11.60;99.90;;;;;;5151343;27;20464;-78
2022/05/15 01:28:07;;;;;;;25.08;7.30;;;11.60;99.90;;;;;;5151358;27;20417;-78
2022/05/15 01:30:35;;;;;;;23.88;7.15;;;11.70;99.90;;;;;;5151607;27;20412;-78
2022/05/15 01:33:02;;;;;;;24.48;6.97;;;11.60;99.90;;;;;;5151255;27;20389;-78
2022/05/15 01:35:28;;;;;;;25.90;7.07;;;11.60;99.90;;;;;;5144993;27;20420;-78
2022/05/15 01:37:54;;;;;;;26.45;7.30;;;11.50;99.90;;;;;;5130842;27;20483;-78
2022/05/15 01:40:19;;;;;;;23.47;6.87;;;11.50;99.90;;;;;;5112269;27;20871;-77
2022/05/15 01:42:45;;;;;;;24.38;6.65;;;11.50;99.90;;;;;;5112312;27;20399;-77
2022/05/15 01:45:12;;;;;;;19.90;6.20;;;11.50;99.90;;;;;;5112164;27;20776;-78
2022/05/15 01:47:38;;;;;;;23.00;6.72;;;11.50;99.90;;;;;;5111740;27;20423;-78
2022/05/15 01:50:04;;;;;;;20.02;6.45;;;11.50;99.90;;;;;;5130645;27;20808;-77
2022/05/15 01:52:30;;;;;;;25.10;6.95;;;11.50;99.90;;;;;;5111974;27;20878;-78
2022/05/15 01:54:55;;;;;;;19.63;6.43;;;11.40;99.90;;;;;;5112138;27;20394;-77
2022/05/15 01:57:21;;;;;;;23.20;7.07;;;11.40;99.90;;;;;;5111613;27;20410;-78
2022/05/15 01:59:47;;;;;;;20.10;6.45;;;11.40;99.90;;;;;;5130648;27;20469;-77
2022/05/15 02:02:13;;;;;;;21.88;7.03;;;11.40;99.90;;;;;;5129779;27;20399;-78
2022/05/15 02:04:39;;;;;;;22.00;6.93;;;11.40;99.90;;;;;;5111713;27;20762;-78
2022/05/15 02:07:05;;;;;;;24.63;6.63;;;11.30;99.90;;;;;;5111965;27;20533;-77
2022/05/15 02:09:31;;;;;;;26.23;7.43;;;11.30;99.90;;;;;;5135499;27;20428;-77
2022/05/15 02:11:56;;;;;;;22.70;6.32;;;11.20;99.90;;;;;;5149844;27;20397;-78
2022/05/15 02:14:22;;;;;;;23.80;6.97;;;11.20;99.90;;;;;;5150090;27;20897;-78
2022/05/15 02:16:48;;;;;;;22.60;7.20;;;11.20;99.90;;;;;;5150845;27;20393;-78
2022/05/15 02:19:13;;;;;;;23.10;6.90;;;11.20;99.90;;;;;;5150608;27;20401;-78
2022/05/15 02:21:39;;;;;;;19.58;6.57;;;11.20;99.90;;;;;;5150013;27;20397;-78
2022/05/15 02:24:05;;;;;;;23.77;6.95;;;11.20;99.90;;;;;;5131974;27;20432;-78
2022/05/15 02:26:31;;;;;;;20.70;6.50;;;11.20;99.90;;;;;;5150393;27;20823;-78
2022/05/15 02:28:56;;;;;;;23.40;7.80;;;11.10;99.90;;;;;;5131663;27;20461;-78
2022/05/15 02:31:22;;;;;;;20.58;7.20;;;11.10;99.90;;;;;;5131135;27;20412;-78
2022/05/15 02:33:48;;;;;;;23.17;7.63;;;11.10;99.90;;;;;;5150270;27;20720;-78
2022/05/15 02:36:13;;;;;;;21.20;7.70;;;11.10;99.90;;;;;;5150578;27;20763;-78
2022/05/15 02:38:39;;;;;;;25.83;7.93;;;11.10;99.90;;;;;;5150214;27;20469;-78
2022/05/15 02:41:05;;;;;;;23.15;7.63;;;11.00;99.90;;;;;;5131192;27;20483;-79
2022/05/15 02:43:31;;;;;;;25.90;8.27;;;11.00;99.90;;;;;;5131360;27;20488;-78
2022/05/15 02:45:57;;;;;;;20.75;7.68;;;11.00;99.90;;;;;;5149959;27;20418;-78
2022/05/15 02:51:08;;;;;;;24.52;7.22;;;11.00;99.90;;;;;;5128261;27;20503;-78
2022/05/15 02:53:43;;;;;;;22.92;7.60;;;10.90;99.90;;;;;;5098602;27;20747;-78
2022/05/15 02:56:20;;;;;;;24.00;7.38;;;10.90;99.90;;;;;;5131139;27;20401;-78
2022/05/15 02:58:46;;;;;;;22.47;6.93;;;10.90;99.90;;;;;;5137419;27;20928;-78
2022/05/15 03:01:13;;;;;;;21.80;7.18;;;10.90;99.90;;;;;;5128992;27;20464;-78
2022/05/15 03:03:39;;;;;;;20.23;7.05;;;10.80;99.90;;;;;;5110793;27;20768;-78
2022/05/15 03:06:06;;;;;;;21.00;7.10;;;10.80;99.90;;;;;;5112696;27;20444;-78
2022/05/15 03:08:33;;;;;;;18.73;7.05;;;10.80;99.90;;;;;;5133542;27;20441;-78
2022/05/15 03:10:58;;;;;;;21.88;7.20;;;10.70;99.90;;;;;;5128783;27;20409;-78
2022/05/15 03:13:24;;;;;;;26.77;8.10;;;10.70;99.90;;;;;;5128746;27;20395;-78
2022/05/15 03:15:50;;;;;;;19.50;6.80;;;10.70;99.90;;;;;;5129072;27;20948;-78
2022/05/15 03:18:15;;;;;;;20.60;7.28;;;10.70;99.90;;;;;;5110260;27;20406;-78
2022/05/15 03:20:41;;;;;;;23.37;7.20;;;10.60;99.90;;;;;;5128126;27;20399;-78
2022/05/15 03:23:07;;;;;;;21.60;6.85;;;10.60;99.90;;;;;;5108983;27;20427;-78
2022/05/15 03:25:33;;;;;;;21.00;6.88;;;10.60;99.90;;;;;;5136574;27;20393;-78
2022/05/15 03:27:59;;;;;;;22.13;6.82;;;10.60;99.90;;;;;;5149310;27;20476;-78
2022/05/15 03:30:25;;;;;;;21.35;7.00;;;10.50;99.90;;;;;;5126788;27;20450;-77
2022/05/15 03:32:51;;;;;;;22.17;6.90;;;10.50;99.90;;;;;;5121165;27;20397;-78
2022/05/15 03:35:16;;;;;;;19.75;6.90;;;10.50;99.90;;;;;;5121660;27;20446;-78
2022/05/15 03:37:42;;;;;;;23.00;8.20;;;10.50;99.90;;;;;;5128569;27;20409;-78
2022/05/15 03:40:15;;;;;;;21.42;7.07;;;10.40;99.90;;;;;;5093354;28;21238;-77
2022/05/15 03:42:41;;;;;;;21.08;6.88;;;10.40;99.90;;;;;;5128515;27;20482;-77
2022/05/15 03:45:07;;;;;;;19.85;6.85;;;10.40;99.90;;;;;;5128632;27;20481;-77
2022/05/15 03:47:35;;;;;;;24.75;7.75;;;10.40;99.90;;;;;;5132691;27;20743;-78
2022/05/15 03:50:02;;;;;;;29.98;8.50;;;10.40;99.90;;;;;;5130707;27;20985;-78
2022/05/15 03:52:27;;;;;;;23.58;7.60;;;10.30;99.90;;;;;;5113288;27;20396;-77
2022/05/15 03:54:53;;;;;;;23.53;8.27;;;10.30;99.90;;;;;;5130564;27;20746;-77
2022/05/15 03:57:19;;;;;;;21.98;7.30;;;10.30;99.90;;;;;;5149048;27;20453;-77
2022/05/15 03:59:45;;;;;;;20.85;7.55;;;10.30;99.90;;;;;;5149274;27;20396;-78
2022/05/15 04:02:11;;;;;;;21.02;7.18;;;10.30;99.90;;;;;;5148747;27;20400;-78
2022/05/15 04:04:38;;;;;;;23.05;7.25;;;10.30;99.90;;;;;;5144657;27;20394;-78
2022/05/15 04:07:04;;;;;;;21.27;7.35;;;10.40;99.90;;;;;;5110084;28;20406;-77
2022/05/15 04:09:32;;;;;;;25.27;8.23;;;10.40;99.90;;;;;;5128783;27;20434;-78
2022/05/15 04:11:57;;;;;;;22.00;7.43;;;10.40;99.90;;;;;;5117952;27;20393;-77
2022/05/15 04:14:23;;;;;;;22.30;7.32;;;10.40;99.90;;;;;;5120209;28;20403;-77
2022/05/15 04:16:49;;;;;;;19.55;7.18;;;10.50;99.90;;;;;;5128704;28;20394;-78
2022/05/15 04:19:14;;;;;;;21.93;7.60;;;10.50;99.90;;;;;;5125346;27;20827;-77
2022/05/15 04:21:40;;;;;;;23.23;8.10;;;10.50;99.90;;;;;;5130324;27;20407;-78
2022/05/15 04:24:14;;;;;;;25.13;7.72;;;10.50;99.90;;;;;;5149223;27;20550;-78
2022/05/15 04:26:41;;;;;;;22.40;7.78;;;10.50;99.90;;;;;;5124554;28;20403;-78
2022/05/15 04:29:08;;;;;;;21.90;7.40;;;10.50;99.90;;;;;;5127607;28;20419;-78
2022/05/15 04:31:34;;;;;;;25.27;7.90;;;10.60;99.90;;;;;;5127521;28;20475;-78
2022/05/15 04:34:00;;;;;;;28.42;8.45;;;10.60;99.90;;;;;;5109461;28;20442;-78
2022/05/15 04:36:26;;;;;;;20.88;7.25;;;10.70;99.90;;;;;;5111993;27;20438;-78
2022/05/15 04:38:52;;;;;;;24.13;7.30;;;10.70;99.90;;;;;;5113875;27;20438;-78
2022/05/15 04:41:17;;;;;;;22.45;7.45;;;10.80;99.90;;;;;;5096075;27;20501;-78
2022/05/15 04:43:43;;;;;;;22.83;7.23;;;10.90;99.90;;;;;;5137720;27;20758;-78
2022/05/15 04:46:09;;;;;;;22.85;6.78;;;10.90;99.90;;;;;;5152720;27;20392;-78
2022/05/15 04:48:35;;;;;;;17.77;6.00;;;11.00;99.90;;;;;;5152256;27;20431;-78
2022/05/15 04:51:01;;;;;;;21.58;6.80;;;11.10;99.90;;;;;;5151805;27;20401;-78
2022/05/15 04:53:27;;;;;;;17.33;6.00;;;11.10;99.90;;;;;;5152530;27;20393;-78
2022/05/15 04:55:53;;;;;;;20.33;6.43;;;11.10;99.90;;;;;;5152450;27;20397;-78
2022/05/15 04:58:19;;;;;;;18.58;6.38;;;11.20;99.90;;;;;;5151934;27;20439;-78
2022/05/15 05:00:45;;;;;;;22.70;6.85;;;11.30;99.90;;;;;;5152079;27;20393;-78
2022/05/15 05:03:11;;;;;;;18.53;6.37;;;11.40;99.90;;;;;;5152180;27;20886;-78
2022/05/15 05:05:36;;;;;;;25.70;7.28;;;11.40;99.90;;;;;;5133552;27;20397;-78
2022/05/15 05:08:02;;;;;;;25.97;7.30;;;11.50;99.90;;;;;;5133544;27;20769;-79
2022/05/15 05:10:28;;;;;;;22.08;7.10;;;11.50;99.90;;;;;;5115810;27;20405;-78
2022/05/15 05:12:53;;;;;;;23.75;7.55;;;11.60;99.90;;;;;;5151938;27;20397;-78
2022/05/15 05:15:19;;;;;;;24.47;7.10;;;11.60;99.90;;;;;;5133341;27;20890;-78
2022/05/15 05:17:44;;;;;;;25.85;6.78;;;11.70;99.90;;;;;;5128391;27;20477;-78
2022/05/15 05:20:12;;;;;;;24.13;6.90;;;11.80;99.90;;;;;;5112398;27;20406;-78
2022/05/15 05:22:38;;;;;;;25.80;7.45;;;11.80;99.90;;;;;;5131050;27;20407;-78
2022/05/15 05:25:04;;;;;;;26.10;6.93;;;11.90;99.90;;;;;;5131428;27;20884;-78
2022/05/15 05:27:30;;;;;;;26.77;6.60;;;12.00;99.90;;;;;;5112088;27;20821;-79
2022/05/15 05:29:55;;;;;;;28.00;7.23;;;12.00;99.90;;;;;;5130507;27;20457;-79
2022/05/15 05:32:21;;;;;;;23.47;7.00;;;12.10;99.90;;;;;;5130471;27;20398;-78
2022/05/15 05:34:47;;;;;;;27.83;6.90;;;12.10;99.90;;;;;;5130851;27;20951;-79
2022/05/15 05:37:14;;;;;;;24.13;7.20;;;12.20;99.90;;;;;;5130473;27;20387;-78
2022/05/15 05:39:39;;;;;;;24.05;7.45;;;12.20;99.90;;;;;;5112349;27;20403;-79
2022/05/15 05:42:05;;;;;;;21.93;6.43;;;12.30;99.90;;;;;;5112687;27;20409;-78
2022/05/15 05:44:31;;;;;;;25.52;7.07;;;12.30;99.90;;;;;;5112150;27;20398;-79
2022/05/15 05:46:57;;;;;;;25.10;6.90;;;12.40;99.90;;;;;;5130473;27;20413;-79
2022/05/15 05:49:22;;;;;;;26.23;7.07;;;12.40;99.90;;;;;;5111923;27;20430;-78
2022/05/15 05:51:48;;;;;;;25.38;6.50;;;12.50;99.90;;;;;;5130111;27;20405;-78
2022/05/15 05:54:13;;;;;;;22.80;6.27;;;12.50;99.90;;;;;;5112184;27;20406;-78
2022/05/15 05:56:39;;;;;;;24.58;7.00;;;12.50;99.90;;;;;;5112123;27;20410;-78
2022/05/15 05:59:05;;;;;;;22.37;6.37;;;12.60;99.90;;;;;;5130195;27;20399;-78
2022/05/15 06:01:30;;;;;;;22.08;6.80;;;12.70;99.90;;;;;;5130118;27;20801;-79
2022/05/15 06:06:40;;;;;;;26.88;7.22;;;12.80;99.90;;;;;;5111852;27;20399;-79
2022/05/15 06:09:05;;;;;;;23.40;6.83;;;12.80;99.90;;;;;;5129963;27;20434;-79
2022/05/15 06:11:31;;;;;;;22.95;6.53;;;12.80;99.90;;;;;;5129929;27;20402;-78
2022/05/15 06:13:56;;;;;;;26.40;6.93;;;12.90;99.90;;;;;;5129898;27;20761;-78
2022/05/15 06:16:22;;;;;;;25.75;7.20;;;13.00;99.90;;;;;;5129045;27;20390;-78
2022/05/15 06:18:48;;;;;;;24.53;6.33;;;13.00;99.90;;;;;;5125219;27;20812;-78
2022/05/15 06:21:14;;;;;;;23.75;6.65;;;13.10;99.90;;;;;;5131898;27;20488;-78
2022/05/15 06:23:40;;;;;;;22.98;6.47;;;13.10;99.90;;;;;;5149869;27;20392;-79
2022/05/15 06:26:05;;;;;;;26.23;6.63;;;13.20;99.90;;;;;;5150423;27;20389;-78
2022/05/15 06:28:34;;;;;;;23.40;6.30;;;13.20;99.90;;;;;;5131711;27;20529;-78
2022/05/15 06:31:00;;;;;;;23.92;6.80;;;13.20;99.90;;;;;;5131163;27;21445;-78
2022/05/15 06:33:26;;;;;;;25.48;6.50;;;13.20;99.90;;;;;;5150097;27;20802;-78
2022/05/15 06:35:51;;;;;;;24.47;6.90;;;13.30;99.90;;;;;;5149853;27;20393;-79
2022/05/15 06:38:17;;;;;;;24.67;6.22;;;13.30;99.90;;;;;;5131843;27;20412;-78
2022/05/15 06:40:43;;;;;;;20.13;5.30;;;13.40;99.90;;;;;;5149692;27;20416;-79
2022/05/15 06:43:09;;;;;;;25.15;5.75;;;13.40;99.90;;;;;;5149818;27;20661;-79
2022/05/15 06:45:35;;;;;;;23.95;5.80;;;13.50;99.90;;;;;;5131271;27;20412;-79
2022/05/15 06:48:01;;;;;;;21.55;5.72;;;13.60;99.90;;;;;;5149831;27;20417;-79
2022/05/15 06:50:26;;;;;;;22.93;5.80;;;13.60;99.90;;;;;;5149812;27;21108;-79
2022/05/15 06:52:52;;;;;;;21.38;5.68;;;13.70;99.90;;;;;;5149977;27;20405;-79
2022/05/15 06:55:20;;;;;;;23.67;6.30;;;13.70;99.90;;;;;;5149265;27;20397;-79
2022/05/15 06:57:47;;;;;;;18.60;5.55;;;13.70;99.90;;;;;;5149760;27;20485;-78
2022/05/15 07:00:17;;;;;;;21.92;6.00;;;13.80;99.90;;;;;;5149363;27;20450;-78
2022/05/15 07:02:43;;;;;;;21.08;5.72;;;13.80;99.90;;;;;;5149672;27;20440;-78
2022/05/15 07:05:10;;;;;;;24.42;6.40;;;13.90;99.90;;;;;;5149742;27;20417;-78
2022/05/15 07:07:37;;;;;;;22.35;6.10;;;13.90;99.90;;;;;;5149842;27;20397;-78
2022/05/15 07:10:04;;;;;;;22.75;6.38;;;14.00;99.90;;;;;;5149556;27;20948;-78
2022/05/15 07:12:30;;;;;;;22.98;5.80;;;14.00;99.90;;;;;;5149655;27;20393;-78
2022/05/15 07:14:55;;;;;;;20.90;6.07;;;14.10;99.90;;;;;;5149774;27;20393;-78
2022/05/15 07:17:21;;;;;;;20.70;6.10;;;14.20;99.90;;;;;;5147680;27;20428;-78
2022/05/15 07:19:46;;;;;;;20.57;5.90;;;14.30;99.90;;;;;;5110943;27;20402;-78
2022/05/15 07:22:12;;;;;;;22.13;6.23;;;14.30;99.90;;;;;;5110546;27;20395;-78
2022/05/15 07:24:39;;;;;;;22.63;6.00;;;14.30;99.90;;;;;;5110462;27;20394;-78
2022/05/15 07:27:06;;;;;;;17.02;5.15;;;14.40;99.90;;;;;;5128580;27;20427;-78
2022/05/15 07:29:36;;;;;;;21.98;5.90;;;14.50;99.90;;;;;;5110214;28;20987;-78
2022/05/15 07:32:03;;;;;;;19.43;5.67;;;14.50;99.90;;;;;;5128869;28;20804;-78
2022/05/15 07:34:29;;;;;;;22.50;5.93;;;14.60;99.90;;;;;;5128478;28;20419;-78
2022/05/15 07:36:54;;;;;;;22.25;5.63;;;14.60;99.90;;;;;;5110299;28;20399;-78
2022/05/15 07:39:20;;;;;;;20.33;5.93;;;14.70;99.90;;;;;;5110508;28;20453;-78
2022/05/15 07:41:47;;;;;;;22.20;5.75;;;14.70;99.90;;;;;;5110655;28;20409;-78
2022/05/15 07:44:13;;;;;;;20.40;5.70;;;14.80;99.90;;;;;;5109924;28;20406;-75
2022/05/15 07:46:40;;;;;;;17.65;5.00;;;14.80;99.90;;;;;;5110484;28;20440;-77
2022/05/15 07:49:06;;;;;;;19.90;5.35;;;14.90;99.90;;;;;;5110017;28;20433;-77
2022/05/15 07:51:32;;;;;;;19.20;5.50;;;15.00;99.90;;;;;;5093405;28;20410;-78
2022/05/15 07:53:59;;;;;;;13.75;3.90;;;15.00;99.90;;;;;;5128681;28;20390;-78
2022/05/15 07:56:25;;;;;;;13.35;3.30;;;15.00;99.90;;;;;;5128484;28;20395;-78
2022/05/15 07:58:51;;;;;;;10.50;2.88;;;15.10;99.90;;;;;;5110137;28;20395;-78
2022/05/15 08:01:17;;;;;;;11.45;2.95;;;15.10;99.90;;;;;;5128319;28;20447;-79
2022/05/15 08:03:46;;;;;;;12.40;3.33;;;15.10;99.90;;;;;;5110144;28;20444;-78
2022/05/15 08:09:02;;;;;;;10.55;2.85;;;15.20;99.90;;;;;;5128368;28;20422;-77
2022/05/15 08:11:28;;;;;;;10.55;2.80;;;15.30;99.90;;;;;;5147281;27;20409;-78
2022/05/15 08:14:00;;;;;;;12.45;3.20;;;15.30;99.90;;;;;;5129733;27;20455;-78
2022/05/15 08:16:26;;;;;;;13.43;3.55;;;15.40;99.90;;;;;;5133100;27;20407;-78
2022/05/15 08:24:41;;;;;;;14.02;3.85;;;15.70;99.90;;;;;;5067105;28;20399;-78
2022/05/15 08:27:09;;;;;;;13.40;3.63;;;15.70;99.90;;;;;;5117012;27;20400;-78
2022/05/15 08:29:35;;;;;;;15.90;4.57;;;15.80;99.90;;;;;;5146742;27;20433;-78
2022/05/15 08:32:02;;;;;;;15.37;4.17;;;15.90;99.90;;;;;;5151519;27;20393;-78
2022/05/15 08:34:29;;;;;;;17.27;4.68;;;16.00;99.90;;;;;;5131330;27;21131;-78
2022/05/15 08:36:55;;;;;;;15.80;4.25;;;16.10;99.90;;;;;;5132934;27;20405;-78
2022/05/15 08:39:21;;;;;;;14.57;4.72;;;16.10;99.90;;;;;;5132927;27;20385;-78
2022/05/15 08:41:49;;;;;;;13.77;4.10;;;16.20;99.90;;;;;;5151140;27;20505;-78
2022/05/15 08:44:18;;;;;;;13.15;3.85;;;16.30;99.90;;;;;;5132135;27;20393;-78
2022/05/15 08:47:03;;;;;;;11.20;3.30;;;16.40;99.90;;;;;;5151258;27;20426;-78
2022/05/15 08:49:57;;;;;;;14.87;4.30;;;16.50;99.90;;;;;;5150853;27;20417;-79
2022/05/15 08:52:28;;;;;;;13.50;3.53;;;16.70;99.90;;;;;;5145379;27;20787;-79
2022/05/15 08:55:04;;;;;;;12.27;4.25;;;16.70;99.90;;;;;;5151458;27;20397;-80
2022/05/15 08:57:50;;;;;;;12.93;4.00;;;16.80;99.90;;;;;;5140464;27;20413;-79
2022/05/15 09:00:20;;;;;;;14.35;4.00;;;17.00;99.90;;;;;;5150263;27;20544;-79
2022/05/15 09:02:46;;;;;;;11.73;3.42;;;17.00;99.90;;;;;;5151364;27;20830;-79
2022/05/15 09:05:13;;;;;;;11.57;3.80;;;17.20;99.90;;;;;;5151552;27;20431;-80
2022/05/15 09:08:03;;;;;;;13.52;3.53;;;17.30;99.90;;;;;;5151870;27;20401;-79
2022/05/15 09:10:37;;;;;;;9.90;2.92;;;17.40;99.90;;;;;;5152147;27;20405;-80
2022/05/15 09:13:20;;;;;;;11.13;3.17;;;17.50;99.90;;;;;;5149880;27;20400;-80
2022/05/15 09:16:01;;;;;;;7.05;1.92;;;17.60;99.90;;;;;;5112532;27;20394;-80
2022/05/15 09:18:33;;;;;;;8.88;2.63;;;17.70;99.90;;;;;;5132210;27;20394;-80
2022/05/15 09:21:08;;;;;;;4.27;0.90;;;17.80;99.90;;;;;;5151267;27;20875;-80
2022/05/15 09:23:37;;;;;;;2.33;0.70;;;17.90;98.40;;;;;;5151614;27;20397;-78
2022/05/15 09:26:06;;;;;;;3.25;0.70;;;18.20;95.20;;;;;;5116229;27;21004;-78
2022/05/15 09:28:50;;;;;;;1.83;0.57;;;18.70;94.00;;;;;;5095934;27;20430;-79
2022/05/15 09:31:29;;;;;;;2.65;0.70;;;19.00;93.00;;;;;;5131145;27;20866;-80
2022/05/15 09:34:05;;;;;;;3.83;0.95;;;19.40;91.00;;;;;;5130494;27;20915;-80
2022/05/15 09:36:51;;;;;;;2.40;0.57;;;19.70;91.10;;;;;;5139931;27;20427;-79
2022/05/15 09:39:20;;;;;;;1.63;0.40;;;20.10;87.10;;;;;;5130020;27;20986;-78
2022/05/15 09:45:07;;;;;;;1.73;0.32;;;20.60;80.80;;;;;;5134096;27;20959;-81
2022/05/15 09:47:43;;;;;;;1.33;0.40;;;20.80;82.40;;;;;;5150878;27;20401;-78
2022/05/15 09:50:31;;;;;;;1.73;0.40;;;21.10;80.80;;;;;;5148005;27;20451;-74
2022/05/15 09:52:57;;;;;;;1.98;0.30;;;21.20;77.90;;;;;;5112313;27;20410;-78
2022/05/15 09:55:26;;;;;;;1.77;0.30;;;21.50;79.40;;;;;;5114462;27;20894;-79
2022/05/15 09:57:55;;;;;;;1.52;0.40;;;21.70;73.80;;;;;;5143939;27;20413;-78
2022/05/15 10:00:23;;;;;;;1.70;0.35;;;21.90;74.00;;;;;;5136705;27;20468;-77
2022/05/15 10:02:51;;;;;;;1.75;0.32;;;22.10;72.30;;;;;;5123008;27;20408;-77
2022/05/15 10:05:23;;;;;;;1.63;0.38;;;22.20;71.20;;;;;;5135600;27;20426;-78
2022/05/15 10:08:04;;;;;;;1.98;0.40;;;22.30;70.00;;;;;;5147167;27;20829;-78
2022/05/15 10:10:38;;;;;;;2.33;0.40;;;22.40;72.70;;;;;;5132509;27;21020;-78
2022/05/15 10:13:39;;;;;;;4.15;0.90;;;22.70;67.20;;;;;;5150818;27;20401;-78
2022/05/15 10:16:20;;;;;;;5.90;1.60;;;22.70;67.20;;;;;;5130017;27;20466;-78
2022/05/15 10:19:15;;;;;;;7.75;1.77;;;22.80;64.50;;;;;;5150579;27;20401;-78
2022/05/15 10:21:48;;;;;;;5.50;1.40;;;23.00;66.30;;;;;;5131891;27;20405;-78
2022/05/15 10:24:23;;;;;;;5.22;1.33;;;23.20;66.20;;;;;;5150724;27;20523;-78
2022/05/15 10:27:10;;;;;;;4.18;0.90;;;23.30;66.50;;;;;;5130924;27;20444;-79
2022/05/15 10:29:47;;;;;;;3.53;1.20;;;23.50;67.10;;;;;;5149275;27;20524;-79
2022/05/15 10:32:22;;;;;;;5.10;1.30;;;23.60;68.00;;;;;;5150041;27;20397;-79
2022/05/15 10:34:47;;;;;;;5.57;1.45;;;23.80;67.80;;;;;;5149679;27;20511;-79
2022/05/15 10:37:32;;;;;;;7.10;1.87;;;23.80;66.80;;;;;;5150111;27;20476;-79
2022/05/15 10:40:17;;;;;;;8.80;1.90;;;23.70;69.00;;;;;;5150390;27;20980;-79
2022/05/15 10:43:06;;;;;;;6.20;1.95;;;23.80;70.90;;;;;;5150229;27;20401;-79
2022/05/15 10:45:55;;;;;;;7.18;2.35;;;23.80;70.70;;;;;;5150127;27;20916;-79
2022/05/15 10:48:58;;;;;;;7.70;2.42;;;24.00;70.30;;;;;;5150147;27;20420;-78
2022/05/15 10:51:32;;;;;;;7.40;1.98;;;24.00;72.10;;;;;;5149580;27;20405;-79
2022/05/15 11:00:11;;;;;;;6.63;2.10;;;24.00;68.60;;;;;;5149783;27;20405;-79
2022/05/15 11:03:02;;;;;;;8.60;2.10;;;24.00;69.10;;;;;;5131055;27;21141;-78
2022/05/15 11:05:38;;;;;;;8.30;2.40;;;24.10;71.90;;;;;;5149355;27;20906;-79
2022/05/15 11:08:11;;;;;;;6.63;1.98;;;24.20;71.00;;;;;;5149760;27;20538;-79
2022/05/15 11:11:16;;;;;;;8.67;2.57;;;24.30;71.10;;;;;;5131182;27;20401;-79
2022/05/15 11:13:53;;;;;;;7.28;2.50;;;24.40;71.10;;;;;;5149708;27;20423;-79
2022/05/15 11:16:31;;;;;;;7.53;2.23;;;24.50;70.50;;;;;;5149199;27;20968;-79
2022/05/15 11:19:14;;;;;;;9.70;2.77;;;24.60;70.00;;;;;;5117366;27;20415;-79
2022/05/15 11:22:03;;;;;;;8.95;2.72;;;24.60;71.60;;;;;;5128884;27;20406;-79
2022/05/15 11:24:47;;;;;;;10.50;3.00;;;24.60;72.10;;;;;;5072741;28;20414;-79
2022/05/15 11:27:46;;;;;;;9.15;3.08;;;24.70;70.50;;;;;;5110463;28;20418;-79
2022/05/15 11:30:36;;;;;;;8.98;2.95;;;24.70;70.40;;;;;;5128463;27;20427;-79
2022/05/15 11:33:26;;;;;;;9.90;3.17;;;24.70;72.10;;;;;;5102926;28;20829;-79
2022/05/15 11:36:09;;;;;;;10.68;3.45;;;24.90;72.70;;;;;;5128664;28;20403;-79
2022/05/15 11:39:04;;;;;;;12.38;3.72;;;25.20;72.10;;;;;;5128771;28;20407;-79
2022/05/15 11:41:36;;;;;;;11.02;3.25;;;25.30;72.10;;;;;;5110380;28;20406;-79
2022/05/15 11:44:07;;;;;;;9.57;2.92;;;25.40;70.30;;;;;;5128422;27;20395;-79
2022/05/15 11:46:45;;;;;;;11.38;3.60;;;25.40;70.50;;;;;;5114371;27;20427;-79
2022/05/15 11:49:25;;;;;;;9.57;3.08;;;25.20;69.30;;;;;;5132773;27;20437;-79
2022/05/15 11:52:15;;;;;;;12.15;3.45;;;25.10;70.10;;;;;;5132629;27;20437;-79
2022/05/15 11:54:46;;;;;;;10.77;3.72;;;25.20;71.20;;;;;;5114630;27;20845;-79
2022/05/15 11:57:30;;;;;;;11.90;3.80;;;25.20;69.80;;;;;;5132190;27;20411;-79
2022/05/15 12:00:00;;;;;;;9.95;3.47;;;25.20;69.70;;;;;;5132833;27;20482;-79
2022/05/15 12:02:29;;;;;;;13.35;4.00;;;25.20;70.00;;;;;;5132612;27;20396;-79
2022/05/15 12:05:21;;;;;;;12.27;3.55;;;25.20;70.60;;;;;;5113828;27;20411;-79
2022/05/15 12:07:58;;;;;;;11.77;3.88;;;25.20;71.40;;;;;;5114345;27;20432;-79
2022/05/15 12:10:47;;;;;;;12.00;3.80;;;25.30;71.70;;;;;;5131994;27;20777;-79
2022/05/15 12:13:39;;;;;;;12.00;3.80;;;25.40;70.40;;;;;;5132103;27;20430;-79
2022/05/15 12:16:22;;;;;;;12.27;3.97;;;25.40;71.50;;;;;;5114007;27;20455;-79
2022/05/15 12:19:00;;;;;;;12.25;3.75;;;25.30;72.00;;;;;;5125689;27;20409;-79
2022/05/15 12:21:40;;;;;;;13.13;4.03;;;25.40;73.10;;;;;;5148796;27;20422;-79
2022/05/15 12:24:27;;;;;;;13.07;4.20;;;25.70;72.70;;;;;;5144851;27;20536;-76
2022/05/15 12:27:14;;;;;;;11.07;3.55;;;25.80;71.90;;;;;;5145926;27;20396;-74
2022/05/15 12:29:50;;;;;;;11.80;3.95;;;25.70;71.10;;;;;;5150292;27;20474;-78
2022/05/15 12:32:36;;;;;;;15.60;5.07;;;25.40;71.40;;;;;;5131724;27;20402;-78
2022/05/15 12:35:15;;;;;;;12.55;4.10;;;25.00;71.80;;;;;;5147687;27;20457;-78
2022/05/15 12:37:55;;;;;;;13.25;4.55;;;24.60;73.80;;;;;;5151894;27;20433;-78
2022/05/15 12:40:31;;;;;;;15.82;5.40;;;24.50;75.10;;;;;;5113204;27;20411;-78
2022/05/15 12:42:58;;;;;;;16.85;5.13;;;24.40;75.30;;;;;;5130968;27;20395;-78
2022/05/15 12:45:25;;;;;;;16.52;5.25;;;24.20;76.00;;;;;;5147491;27;21088;-78
2022/05/15 12:48:18;;;;;;;15.93;4.75;;;24.20;77.10;;;;;;5149599;27;20492;-78
2022/05/15 12:50:56;;;;;;;13.65;4.53;;;24.40;78.10;;;;;;5147388;27;20409;-77
2022/05/15 12:53:28;;;;;;;14.67;4.57;;;24.70;76.70;;;;;;5151560;27;20403;-77
2022/05/15 12:56:08;;;;;;;14.52;4.50;;;24.70;77.50;;;;;;5144470;27;20922;-77
2022/05/15 12:58:34;;;;;;;15.25;4.60;;;24.80;77.30;;;;;;5149867;27;20448;-79
2022/05/15 13:01:01;;;;;;;16.25;4.63;;;24.80;76.80;;;;;;5147243;27;20936;-78
2022/05/15 13:03:27;;;;;;;13.77;4.47;;;24.90;77.40;;;;;;5110801;27;20401;-78
2022/05/15 13:05:59;;;;;;;15.73;5.00;;;25.10;78.10;;;;;;5144404;27;20440;-78
2022/05/15 13:08:26;;;;;;;12.95;4.35;;;25.30;76.40;;;;;;5146616;27;20413;-78
2022/05/15 13:11:03;;;;;;;15.70;5.07;;;25.40;76.80;;;;;;5149099;27;20421;-78
2022/05/15 13:13:34;;;;;;;14.48;4.97;;;25.60;75.70;;;;;;5150568;27;20420;-78
2022/05/15 13:16:01;;;;;;;12.63;4.57;;;25.90;77.20;;;;;;5132758;27;20401;-78
2022/05/15 13:18:30;;;;;;;13.40;4.32;;;26.20;75.80;;;;;;5150621;27;20965;-79